createdAt,value
2018-06-13T00:00:38.410Z,17.19
2018-06-13T00:01:38.523Z,17.15
2018-06-13T00:02:38.334Z,17.14
2018-06-13T00:03:38.331Z,17.09
2018-06-13T00:04:38.564Z,17.09
2018-06-13T00:05:38.346Z,17.15
2018-06-13T00:06:38.340Z,17.12
2018-06-13T00:07:38.352Z,17.04
2018-06-13T00:08:38.349Z,17.04
2018-06-13T00:09:38.334Z,17.08
2018-06-13T00:10:38.404Z,17.09
2018-06-13T00:11:38.337Z,17.08
2018-06-13T00:12:38.456Z,17.09
2018-06-13T00:13:38.350Z,17.05
2018-06-13T00:14:38.333Z,17.02
2018-06-13T00:15:38.331Z,17.04
2018-06-13T00:16:38.349Z,17.04
2018-06-13T00:17:38.315Z,17.04
2018-06-13T00:18:38.358Z,17.05
2018-06-13T00:19:38.358Z,17.09
2018-06-13T00:20:38.401Z,17.05
2018-06-13T00:21:38.354Z,17.01
2018-06-13T00:22:38.762Z,16.99
2018-06-13T00:23:38.472Z,17.02
2018-06-13T00:24:38.830Z,17.02
2018-06-13T00:25:38.436Z,16.98
2018-06-13T00:26:38.349Z,16.98
2018-06-13T00:27:38.337Z,17.02
2018-06-13T00:28:38.529Z,17.01
2018-06-13T00:29:38.336Z,17.01
2018-06-13T00:30:38.345Z,17.01
2018-06-13T00:31:38.336Z,16.98
2018-06-13T00:32:38.421Z,16.95
2018-06-13T00:33:38.377Z,16.95
2018-06-13T00:34:38.375Z,16.94
2018-06-13T00:35:38.346Z,16.94
2018-06-13T00:36:38.338Z,16.94
2018-06-13T00:37:38.351Z,16.94
2018-06-13T00:38:38.353Z,16.94
2018-06-13T00:39:38.379Z,16.92
2018-06-13T00:40:38.367Z,16.95
2018-06-13T00:41:38.332Z,16.97
2018-06-13T00:42:38.375Z,16.92
2018-06-13T00:43:38.390Z,16.91
2018-06-13T00:44:38.428Z,16.91
2018-06-13T00:45:38.426Z,16.97
2018-06-13T00:46:38.476Z,16.9
2018-06-13T00:47:38.413Z,16.95
2018-06-13T00:48:38.470Z,16.88
2018-06-13T00:49:38.422Z,16.9
2018-06-13T00:50:38.408Z,16.84
2018-06-13T00:51:38.384Z,16.83
2018-06-13T00:52:38.461Z,16.87
2018-06-13T00:53:38.399Z,16.81
2018-06-13T00:54:38.363Z,16.81
2018-06-13T00:55:38.354Z,16.83
2018-06-13T00:56:38.350Z,16.83
2018-06-13T00:57:38.355Z,16.84
2018-06-13T00:58:38.351Z,16.83
2018-06-13T00:59:38.365Z,16.84
2018-06-13T01:00:38.372Z,16.81
2018-06-13T01:01:38.357Z,16.83
2018-06-13T01:02:38.360Z,16.88
2018-06-13T01:03:38.355Z,16.88
2018-06-13T01:04:38.602Z,16.81
2018-06-13T01:05:38.352Z,16.81
2018-06-13T01:06:38.347Z,16.83
2018-06-13T01:07:38.556Z,16.78
2018-06-13T01:08:38.458Z,16.77
2018-06-13T01:09:38.562Z,16.8
2018-06-13T01:10:40.185Z,16.83
2018-06-13T01:11:38.369Z,16.77
2018-06-13T01:12:38.356Z,16.8
2018-06-13T01:13:38.599Z,16.77
2018-06-13T01:14:38.461Z,16.75
2018-06-13T01:15:38.381Z,16.78
2018-06-13T01:16:38.411Z,16.77
2018-06-13T01:17:38.412Z,16.74
2018-06-13T01:18:38.372Z,16.73
2018-06-13T01:19:38.555Z,16.71
2018-06-13T01:20:38.379Z,16.75
2018-06-13T01:21:38.419Z,16.73
2018-06-13T01:22:38.379Z,16.7
2018-06-13T01:23:38.483Z,16.73
2018-06-13T01:24:38.686Z,16.74
2018-06-13T01:25:38.365Z,16.7
2018-06-13T01:26:38.401Z,16.64
2018-06-13T01:27:38.455Z,16.59
2018-06-13T01:28:38.401Z,16.6
2018-06-13T01:29:38.543Z,16.67
2018-06-13T01:30:38.424Z,16.6
2018-06-13T01:31:38.371Z,16.57
2018-06-13T01:32:38.489Z,16.56
2018-06-13T01:33:38.381Z,16.53
2018-06-13T01:34:38.423Z,16.54
2018-06-13T01:35:38.514Z,16.5
2018-06-13T01:36:38.379Z,16.5
2018-06-13T01:37:38.416Z,16.49
2018-06-13T01:38:38.437Z,16.5
2018-06-13T01:39:38.426Z,16.52
2018-06-13T01:40:38.398Z,16.5
2018-06-13T01:41:38.394Z,16.53
2018-06-13T01:42:38.377Z,16.5
2018-06-13T01:43:38.436Z,16.47
2018-06-13T01:44:38.565Z,16.47
2018-06-13T01:45:38.439Z,16.45
2018-06-13T01:46:38.422Z,16.49
2018-06-13T01:47:38.476Z,16.52
2018-06-13T01:48:38.562Z,16.5
2018-06-13T01:49:38.411Z,16.5
2018-06-13T01:50:38.383Z,16.47
2018-06-13T01:51:38.444Z,16.52
2018-06-13T01:52:38.498Z,16.49
2018-06-13T01:53:38.525Z,16.45
2018-06-13T01:54:38.456Z,16.45
2018-06-13T01:55:38.408Z,16.43
2018-06-13T01:56:38.478Z,16.45
2018-06-13T01:57:38.398Z,16.43
2018-06-13T01:58:38.436Z,16.35
2018-06-13T01:59:38.449Z,16.37
2018-06-13T02:00:38.419Z,16.37
2018-06-13T02:01:38.384Z,16.4
2018-06-13T02:02:38.381Z,16.33
2018-06-13T02:03:38.392Z,16.35
2018-06-13T02:04:38.396Z,16.33
2018-06-13T02:05:38.395Z,16.29
2018-06-13T02:06:38.398Z,16.29
2018-06-13T02:07:38.395Z,16.29
2018-06-13T02:08:38.404Z,16.31
2018-06-13T02:09:38.412Z,16.33
2018-06-13T02:10:38.416Z,16.31
2018-06-13T02:11:38.432Z,16.32
2018-06-13T02:12:38.386Z,16.26
2018-06-13T02:13:38.384Z,16.28
2018-06-13T02:14:38.408Z,16.26
2018-06-13T02:15:38.426Z,16.25
2018-06-13T02:16:38.392Z,16.26
2018-06-13T02:17:38.472Z,16.31
2018-06-13T02:18:38.515Z,16.31
2018-06-13T02:19:38.477Z,16.28
2018-06-13T02:20:38.559Z,16.26
2018-06-13T02:21:38.551Z,16.32
2018-06-13T02:22:38.459Z,16.28
2018-06-13T02:23:38.416Z,16.29
2018-06-13T02:24:38.409Z,16.32
2018-06-13T02:25:38.430Z,16.28
2018-06-13T02:26:38.430Z,16.24
2018-06-13T02:27:38.416Z,16.25
2018-06-13T02:28:38.437Z,16.26
2018-06-13T02:29:38.426Z,16.28
2018-06-13T02:30:38.480Z,16.24
2018-06-13T02:31:38.661Z,16.22
2018-06-13T02:32:38.406Z,16.19
2018-06-13T02:33:38.411Z,16.16
2018-06-13T02:34:38.419Z,16.16
2018-06-13T02:35:38.423Z,16.21
2018-06-13T02:36:38.505Z,16.25
2018-06-13T02:37:38.556Z,16.22
2018-06-13T02:38:38.421Z,16.19
2018-06-13T02:39:38.413Z,16.18
2018-06-13T02:40:38.460Z,16.18
2018-06-13T02:41:38.482Z,16.19
2018-06-13T02:42:38.425Z,16.14
2018-06-13T02:43:38.457Z,16.14
2018-06-13T02:44:38.445Z,16.09
2018-06-13T02:45:38.454Z,16.14
2018-06-13T02:46:38.475Z,16.11
2018-06-13T02:47:38.437Z,16.11
2018-06-13T02:48:38.454Z,16.11
2018-06-13T02:49:38.412Z,16.07
2018-06-13T02:50:38.503Z,16.02
2018-06-13T02:51:38.433Z,16.02
2018-06-13T02:52:38.426Z,16.04
2018-06-13T02:53:38.482Z,15.99
2018-06-13T02:54:38.465Z,15.99
2018-06-13T02:55:38.435Z,15.97
2018-06-13T02:56:38.426Z,15.97
2018-06-13T02:57:38.504Z,15.98
2018-06-13T02:58:38.441Z,15.91
2018-06-13T02:59:38.527Z,15.94
2018-06-13T03:00:38.423Z,15.94
2018-06-13T03:01:38.466Z,15.88
2018-06-13T03:02:38.447Z,15.85
2018-06-13T03:03:38.428Z,15.87
2018-06-13T03:04:38.488Z,15.9
2018-06-13T03:05:38.417Z,15.9
2018-06-13T03:06:38.426Z,15.95
2018-06-13T03:07:38.576Z,15.95
2018-06-13T03:08:38.424Z,15.94
2018-06-13T03:09:38.425Z,15.91
2018-06-13T03:10:38.421Z,15.87
2018-06-13T03:11:38.425Z,15.88
2018-06-13T03:12:38.453Z,15.88
2018-06-13T03:13:38.616Z,15.85
2018-06-13T03:14:38.454Z,15.9
2018-06-13T03:15:38.452Z,15.85
2018-06-13T03:16:38.453Z,15.85
2018-06-13T03:17:38.468Z,15.88
2018-06-13T03:18:38.435Z,15.9
2018-06-13T03:19:38.410Z,15.85
2018-06-13T03:20:38.421Z,15.84
2018-06-13T03:21:38.421Z,15.8
2018-06-13T03:22:38.446Z,15.82
2018-06-13T03:23:38.446Z,15.85
2018-06-13T03:24:38.433Z,15.88
2018-06-13T03:25:38.419Z,15.9
2018-06-13T03:26:38.442Z,15.88
2018-06-13T03:27:38.669Z,15.87
2018-06-13T03:28:38.444Z,15.92
2018-06-13T03:29:38.457Z,15.87
2018-06-13T03:30:38.466Z,15.87
2018-06-13T03:31:38.450Z,15.87
2018-06-13T03:32:38.539Z,15.88
2018-06-13T03:33:38.977Z,15.88
2018-06-13T03:34:38.437Z,15.9
2018-06-13T03:35:38.449Z,15.88
2018-06-13T03:36:38.469Z,15.84
2018-06-13T03:37:38.417Z,15.85
2018-06-13T03:38:38.460Z,15.85
2018-06-13T03:39:38.469Z,15.78
2018-06-13T03:40:38.513Z,15.81
2018-06-13T03:41:38.437Z,15.8
2018-06-13T03:42:38.507Z,15.78
2018-06-13T03:43:38.441Z,15.77
2018-06-13T03:44:38.459Z,15.8
2018-06-13T03:45:38.446Z,15.73
2018-06-13T03:46:38.449Z,15.76
2018-06-13T03:47:38.485Z,15.71
2018-06-13T03:48:38.504Z,15.73
2018-06-13T03:49:38.469Z,15.73
2018-06-13T03:50:38.475Z,15.7
2018-06-13T03:51:38.449Z,15.74
2018-06-13T03:52:38.481Z,15.69
2018-06-13T03:53:38.589Z,15.69
2018-06-13T03:54:38.482Z,15.66
2018-06-13T03:55:38.445Z,15.69
2018-06-13T03:56:38.589Z,15.69
2018-06-13T03:57:38.584Z,15.66
2018-06-13T03:58:38.543Z,15.69
2018-06-13T03:59:38.448Z,15.69
2018-06-13T04:00:38.447Z,15.66
2018-06-13T04:01:38.527Z,15.67
2018-06-13T04:02:38.523Z,15.67
2018-06-13T04:03:38.728Z,15.69
2018-06-13T04:04:38.459Z,15.7
2018-06-13T04:05:38.653Z,15.7
2018-06-13T04:06:38.536Z,15.71
2018-06-13T04:07:38.454Z,15.69
2018-06-13T04:08:38.455Z,15.69
2018-06-13T04:09:38.453Z,15.71
2018-06-13T04:10:38.529Z,15.71
2018-06-13T04:11:38.494Z,15.73
2018-06-13T04:12:38.495Z,15.73
2018-06-13T04:13:38.646Z,15.74
2018-06-13T04:14:38.481Z,15.76
2018-06-13T04:15:38.458Z,15.74
2018-06-13T04:16:38.540Z,15.78
2018-06-13T04:17:38.478Z,15.76
2018-06-13T04:18:38.497Z,15.76
2018-06-13T04:19:38.469Z,15.76
2018-06-13T04:20:38.481Z,15.71
2018-06-13T04:21:38.473Z,15.71
2018-06-13T04:22:38.476Z,15.73
2018-06-13T04:23:38.531Z,15.77
2018-06-13T04:24:38.455Z,15.74
2018-06-13T04:25:38.478Z,15.73
2018-06-13T04:26:38.466Z,15.71
2018-06-13T04:27:38.499Z,15.7
2018-06-13T04:28:38.491Z,15.7
2018-06-13T04:29:38.470Z,15.71
2018-06-13T04:30:38.497Z,15.71
2018-06-13T04:31:38.481Z,15.76
2018-06-13T04:32:38.581Z,15.73
2018-06-13T04:33:38.550Z,15.7
2018-06-13T04:34:38.487Z,15.73
2018-06-13T04:35:38.473Z,15.76
2018-06-13T04:36:38.505Z,15.74
2018-06-13T04:37:38.462Z,15.69
2018-06-13T04:38:38.537Z,15.73
2018-06-13T04:39:38.508Z,15.71
2018-06-13T04:40:38.486Z,15.69
2018-06-13T04:41:38.495Z,15.73
2018-06-13T04:42:38.466Z,15.71
2018-06-13T04:43:38.474Z,15.73
2018-06-13T04:44:38.480Z,15.7
2018-06-13T04:45:38.497Z,15.71
2018-06-13T04:46:38.492Z,15.71
2018-06-13T04:47:38.484Z,15.71
2018-06-13T04:48:38.478Z,15.7
2018-06-13T04:49:38.519Z,15.7
2018-06-13T04:50:38.538Z,15.73
2018-06-13T04:51:38.633Z,15.71
2018-06-13T04:52:38.499Z,15.7
2018-06-13T04:53:38.479Z,15.71
2018-06-13T04:54:38.516Z,15.71
2018-06-13T04:55:38.484Z,15.7
2018-06-13T04:56:38.485Z,15.7
2018-06-13T04:57:38.836Z,15.74
2018-06-13T04:58:38.670Z,15.73
2018-06-13T04:59:38.491Z,15.71
2018-06-13T05:00:38.471Z,15.71
2018-06-13T05:01:38.494Z,15.73
2018-06-13T05:02:38.543Z,15.69
2018-06-13T05:03:38.622Z,15.7
2018-06-13T05:04:38.532Z,15.67
2018-06-13T05:05:38.532Z,15.67
2018-06-13T05:06:38.496Z,15.69
2018-06-13T05:07:38.543Z,15.66
2018-06-13T05:08:38.549Z,15.71
2018-06-13T05:09:38.503Z,15.66
2018-06-13T05:10:38.566Z,15.67
2018-06-13T05:11:38.497Z,15.69
2018-06-13T05:12:38.505Z,15.71
2018-06-13T05:13:38.636Z,15.69
2018-06-13T05:14:38.502Z,15.69
2018-06-13T05:15:38.521Z,15.71
2018-06-13T05:16:38.557Z,15.67
2018-06-13T05:17:38.545Z,15.66
2018-06-13T05:18:38.505Z,15.71
2018-06-13T05:19:38.510Z,15.69
2018-06-13T05:20:38.500Z,15.71
2018-06-13T05:21:38.561Z,15.73
2018-06-13T05:22:38.511Z,15.73
2018-06-13T05:23:38.533Z,15.73
2018-06-13T05:24:38.513Z,15.7
2018-06-13T05:25:38.511Z,15.7
2018-06-13T05:26:38.552Z,15.76
2018-06-13T05:27:38.622Z,15.71
2018-06-13T05:28:38.600Z,15.74
2018-06-13T05:29:38.567Z,15.73
2018-06-13T05:30:38.534Z,15.71
2018-06-13T05:31:38.491Z,15.74
2018-06-13T05:32:38.612Z,15.73
2018-06-13T05:33:38.514Z,15.74
2018-06-13T05:34:38.512Z,15.74
2018-06-13T05:35:38.547Z,15.77
2018-06-13T05:36:38.482Z,15.78
2018-06-13T05:37:38.546Z,15.76
2018-06-13T05:38:38.552Z,15.82
2018-06-13T05:39:38.511Z,15.85
2018-06-13T05:40:38.529Z,15.85
2018-06-13T05:41:38.552Z,15.87
2018-06-13T05:42:38.549Z,15.88
2018-06-13T05:43:38.513Z,15.81
2018-06-13T05:44:38.554Z,15.84
2018-06-13T05:45:38.520Z,15.87
2018-06-13T05:46:38.508Z,15.9
2018-06-13T05:47:38.548Z,15.84
2018-06-13T05:48:38.560Z,15.88
2018-06-13T05:49:38.573Z,15.87
2018-06-13T05:50:38.519Z,15.8
2018-06-13T05:51:38.504Z,15.77
2018-06-13T05:52:38.575Z,15.73
2018-06-13T05:53:38.516Z,15.69
2018-06-13T05:54:38.527Z,15.67
2018-06-13T05:55:38.548Z,15.66
2018-06-13T05:56:38.538Z,15.73
2018-06-13T05:57:38.540Z,15.69
2018-06-13T05:58:38.601Z,15.69
2018-06-13T05:59:38.530Z,15.67
2018-06-13T06:00:38.519Z,15.66
2018-06-13T06:01:38.607Z,15.7
2018-06-13T06:02:38.583Z,15.7
2018-06-13T06:03:38.555Z,15.69
2018-06-13T06:04:38.598Z,15.64
2018-06-13T06:05:38.756Z,15.71
2018-06-13T06:06:38.542Z,15.74
2018-06-13T06:07:38.548Z,15.74
2018-06-13T06:08:38.580Z,15.77
2018-06-13T06:09:38.545Z,15.76
2018-06-13T06:10:38.561Z,15.78
2018-06-13T06:11:38.574Z,15.8
2018-06-13T06:12:38.577Z,15.8
2018-06-13T06:13:38.969Z,15.85
2018-06-13T06:14:38.566Z,15.88
2018-06-13T06:15:38.593Z,15.94
2018-06-13T06:16:38.558Z,15.99
2018-06-13T06:17:38.585Z,16.05
2018-06-13T06:18:38.681Z,16.11
2018-06-13T06:19:38.635Z,16.16
2018-06-13T06:20:38.747Z,16.19
2018-06-13T06:21:38.567Z,16.25
2018-06-13T06:22:38.553Z,16.28
2018-06-13T06:23:38.790Z,16.33
2018-06-13T06:24:38.521Z,16.39
2018-06-13T06:25:38.629Z,16.39
2018-06-13T06:26:38.566Z,16.29
2018-06-13T06:27:38.677Z,16.31
2018-06-13T06:28:39.264Z,16.36
2018-06-13T06:29:38.592Z,16.43
2018-06-13T06:30:38.547Z,16.29
2018-06-13T06:31:38.567Z,16.35
2018-06-13T06:32:38.557Z,16.36
2018-06-13T06:33:38.562Z,16.35
2018-06-13T06:34:38.689Z,16.43
2018-06-13T06:35:38.551Z,16.46
2018-06-13T06:36:38.549Z,16.5
2018-06-13T06:37:38.623Z,16.49
2018-06-13T06:38:38.557Z,16.5
2018-06-13T06:39:38.571Z,16.56
2018-06-13T06:40:38.612Z,16.59
2018-06-13T06:41:38.567Z,16.56
2018-06-13T06:42:38.544Z,16.63
2018-06-13T06:43:38.584Z,16.68
2018-06-13T06:44:38.977Z,16.71
2018-06-13T06:45:38.560Z,16.81
2018-06-13T06:46:38.541Z,16.83
2018-06-13T06:47:38.558Z,16.91
2018-06-13T06:48:38.540Z,16.94
2018-06-13T06:49:38.801Z,16.88
2018-06-13T06:50:38.778Z,16.78
2018-06-13T06:51:38.570Z,16.74
2018-06-13T06:52:38.571Z,16.74
2018-06-13T06:53:38.549Z,16.75
2018-06-13T06:54:38.546Z,16.64
2018-06-13T06:55:38.861Z,16.59
2018-06-13T06:56:38.553Z,16.62
2018-06-13T06:57:38.591Z,16.56
2018-06-13T06:58:38.582Z,16.54
2018-06-13T06:59:38.566Z,16.54
2018-06-13T07:00:38.570Z,16.56
2018-06-13T07:01:38.704Z,16.56
2018-06-13T07:02:38.823Z,16.47
2018-06-13T07:03:38.568Z,16.37
2018-06-13T07:04:38.598Z,16.31
2018-06-13T07:05:38.606Z,16.33
2018-06-13T07:06:38.579Z,16.29
2018-06-13T07:07:38.554Z,16.28
2018-06-13T07:08:38.554Z,16.25
2018-06-13T07:09:38.608Z,16.29
2018-06-13T07:10:38.553Z,16.32
2018-06-13T07:11:38.583Z,16.25
2018-06-13T07:12:38.549Z,16.26
2018-06-13T07:13:38.601Z,16.26
2018-06-13T07:14:38.731Z,16.22
2018-06-13T07:15:38.834Z,16.31
2018-06-13T07:16:38.779Z,16.32
2018-06-13T07:17:38.609Z,16.32
2018-06-13T07:18:38.581Z,16.28
2018-06-13T07:19:38.619Z,16.28
2018-06-13T07:20:38.577Z,16.35
2018-06-13T07:21:38.577Z,16.33
2018-06-13T07:22:38.576Z,16.36
2018-06-13T07:23:38.646Z,16.36
2018-06-13T07:24:38.700Z,16.31
2018-06-13T07:25:38.560Z,16.31
2018-06-13T07:26:38.566Z,16.32
2018-06-13T07:27:38.571Z,16.36
2018-06-13T07:28:38.595Z,16.39
2018-06-13T07:29:38.548Z,16.36
2018-06-13T07:30:38.601Z,16.37
2018-06-13T07:31:38.551Z,16.31
2018-06-13T07:32:39.219Z,16.32
2018-06-13T07:33:38.776Z,16.43
2018-06-13T07:34:38.575Z,16.49
2018-06-13T07:35:38.586Z,16.49
2018-06-13T07:36:38.562Z,16.56
2018-06-13T07:37:38.748Z,16.6
2018-06-13T07:38:38.584Z,16.68
2018-06-13T07:39:38.569Z,16.71
2018-06-13T07:40:38.558Z,16.64
2018-06-13T07:41:38.637Z,16.73
2018-06-13T07:42:38.584Z,16.67
2018-06-13T07:43:38.582Z,16.7
2018-06-13T07:44:38.566Z,16.73
2018-06-13T07:45:38.573Z,16.8
2018-06-13T07:46:38.579Z,16.91
2018-06-13T07:47:38.818Z,16.94
2018-06-13T07:48:38.634Z,16.92
2018-06-13T07:49:38.742Z,16.9
2018-06-13T07:50:38.597Z,16.97
2018-06-13T07:51:38.697Z,16.98
2018-06-13T07:52:38.619Z,17.01
2018-06-13T07:53:38.571Z,16.98
2018-06-13T07:54:38.609Z,16.97
2018-06-13T07:55:38.618Z,16.88
2018-06-13T07:56:38.580Z,16.88
2018-06-13T07:57:38.586Z,16.87
2018-06-13T07:58:38.587Z,16.95
2018-06-13T07:59:38.643Z,17.01
2018-06-13T08:00:38.582Z,17.04
2018-06-13T08:01:38.587Z,16.99
2018-06-13T08:02:38.596Z,16.99
2018-06-13T08:03:38.596Z,16.92
2018-06-13T08:04:38.733Z,16.95
2018-06-13T08:05:38.582Z,17.05
2018-06-13T08:06:38.602Z,17.02
2018-06-13T08:07:38.690Z,17.04
2018-06-13T08:08:39.465Z,17.07
2018-06-13T08:09:38.676Z,17.09
2018-06-13T08:10:38.677Z,17.05
2018-06-13T08:11:38.575Z,17.02
2018-06-13T08:12:38.658Z,17.07
2018-06-13T08:13:38.564Z,17.04
2018-06-13T08:14:38.667Z,17.09
2018-06-13T08:15:38.627Z,17.04
2018-06-13T08:16:38.635Z,17.05
2018-06-13T08:17:38.708Z,17.05
2018-06-13T08:18:38.674Z,17.07
2018-06-13T08:19:38.652Z,17.02
2018-06-13T08:20:38.607Z,17.01
2018-06-13T08:21:38.594Z,17.05
2018-06-13T08:22:38.598Z,17.01
2018-06-13T08:23:38.585Z,16.95
2018-06-13T08:24:38.632Z,16.95
2018-06-13T08:25:38.743Z,16.97
2018-06-13T08:26:38.814Z,16.9
2018-06-13T08:27:38.823Z,16.83
2018-06-13T08:28:38.613Z,16.81
2018-06-13T08:29:38.582Z,16.86
2018-06-13T08:30:38.608Z,16.87
2018-06-13T08:31:38.592Z,16.86
2018-06-13T08:32:38.652Z,16.88
2018-06-13T08:33:38.748Z,16.8
2018-06-13T08:34:38.610Z,16.87
2018-06-13T08:35:38.610Z,16.97
2018-06-13T08:36:38.900Z,17.01
2018-06-13T08:37:38.637Z,17.04
2018-06-13T08:38:38.605Z,17.09
2018-06-13T08:39:38.592Z,17.14
2018-06-13T08:40:38.785Z,17.11
2018-06-13T08:41:38.597Z,17.12
2018-06-13T08:42:38.644Z,17.14
2018-06-13T08:43:38.652Z,17.15
2018-06-13T08:44:38.599Z,17.15
2018-06-13T08:45:38.637Z,17.12
2018-06-13T08:46:38.613Z,17.11
2018-06-13T08:47:38.707Z,16.99
2018-06-13T08:48:38.725Z,16.95
2018-06-13T08:49:38.843Z,16.91
2018-06-13T08:50:38.640Z,16.92
2018-06-13T08:51:38.603Z,16.88
2018-06-13T08:52:38.747Z,16.88
2018-06-13T08:53:38.698Z,16.9
2018-06-13T08:54:38.733Z,16.86
2018-06-13T08:55:38.734Z,16.87
2018-06-13T08:56:38.617Z,16.8
2018-06-13T08:57:38.665Z,16.84
2018-06-13T08:58:38.607Z,16.78
2018-06-13T08:59:38.749Z,16.84
2018-06-13T09:00:38.891Z,16.86
2018-06-13T09:01:38.616Z,16.87
2018-06-13T09:02:38.669Z,16.92
2018-06-13T09:03:38.616Z,16.97
2018-06-13T09:04:38.612Z,16.91
2018-06-13T09:05:38.588Z,16.92
2018-06-13T09:06:38.602Z,16.88
2018-06-13T09:07:38.611Z,16.91
2018-06-13T09:08:38.608Z,17.01
2018-06-13T09:09:38.624Z,17.08
2018-06-13T09:10:38.614Z,17.15
2018-06-13T09:11:38.641Z,17.18
2018-06-13T09:12:38.614Z,17.18
2018-06-13T09:13:38.634Z,17.23
2018-06-13T09:14:38.611Z,17.29
2018-06-13T09:15:38.597Z,17.27
2018-06-13T09:16:38.617Z,17.23
2018-06-13T09:17:38.633Z,17.29
2018-06-13T09:18:38.615Z,17.29
2018-06-13T09:19:38.614Z,17.3
2018-06-13T09:20:38.613Z,17.36
2018-06-13T09:21:38.621Z,17.37
2018-06-13T09:22:38.611Z,17.33
2018-06-13T09:23:38.708Z,17.3
2018-06-13T09:24:38.636Z,17.36
2018-06-13T09:25:38.607Z,17.35
2018-06-13T09:26:38.932Z,17.26
2018-06-13T09:27:38.809Z,17.21
2018-06-13T09:28:38.609Z,17.19
2018-06-13T09:29:38.706Z,17.16
2018-06-13T09:30:38.617Z,17.16
2018-06-13T09:31:38.632Z,17.15
2018-06-13T09:32:39.266Z,17.19
2018-06-13T09:33:38.648Z,17.21
2018-06-13T09:34:38.605Z,17.25
2018-06-13T09:35:38.804Z,17.22
2018-06-13T09:36:38.632Z,17.25
2018-06-13T09:37:39.259Z,17.16
2018-06-13T09:38:38.669Z,17.11
2018-06-13T09:39:38.652Z,17.08
2018-06-13T09:40:38.621Z,17.05
2018-06-13T09:41:38.647Z,17.08
2018-06-13T09:42:38.647Z,17.08
2018-06-13T09:43:38.638Z,17.04
2018-06-13T09:44:38.631Z,17.01
2018-06-13T09:45:38.673Z,16.99
2018-06-13T09:46:38.634Z,16.94
2018-06-13T09:47:38.651Z,16.94
2018-06-13T09:48:38.672Z,16.97
2018-06-13T09:49:38.621Z,16.9
2018-06-13T09:50:38.626Z,16.84
2018-06-13T09:51:38.646Z,16.84
2018-06-13T09:52:38.630Z,16.8
2018-06-13T09:53:38.637Z,16.8
2018-06-13T09:54:38.638Z,16.74
2018-06-13T09:55:38.635Z,16.7
2018-06-13T09:56:38.768Z,16.64
2018-06-13T09:57:38.664Z,16.63
2018-06-13T09:58:38.655Z,16.68
2018-06-13T09:59:38.660Z,16.71
2018-06-13T10:00:38.638Z,16.7
2018-06-13T10:01:38.824Z,16.67
2018-06-13T10:02:38.712Z,16.66
2018-06-13T10:03:38.643Z,16.68
2018-06-13T10:04:38.852Z,16.73
2018-06-13T10:05:38.644Z,16.77
2018-06-13T10:06:38.846Z,16.78
2018-06-13T10:07:38.644Z,16.75
2018-06-13T10:08:38.788Z,16.75
2018-06-13T10:09:38.625Z,16.8
2018-06-13T10:10:38.654Z,16.83
2018-06-13T10:11:38.627Z,16.78
2018-06-13T10:12:38.740Z,16.84
2018-06-13T10:13:38.638Z,16.88
2018-06-13T10:14:38.651Z,16.87
2018-06-13T10:15:38.642Z,16.9
2018-06-13T10:16:38.690Z,16.94
2018-06-13T10:17:38.784Z,16.94
2018-06-13T10:18:38.842Z,16.97
2018-06-13T10:19:38.659Z,16.97
2018-06-13T10:20:38.652Z,16.99
2018-06-13T10:21:38.692Z,17.01
2018-06-13T10:22:38.652Z,17.01
2018-06-13T10:23:38.721Z,17.01
2018-06-13T10:24:38.674Z,17.04
2018-06-13T10:25:38.677Z,17.02
2018-06-13T10:26:38.805Z,17.04
2018-06-13T10:27:38.658Z,17.08
2018-06-13T10:28:38.653Z,17.02
2018-06-13T10:29:38.670Z,17.04
2018-06-13T10:30:38.680Z,16.95
2018-06-13T10:31:38.674Z,17.04
2018-06-13T10:32:38.657Z,17.01
2018-06-13T10:33:38.703Z,17.04
2018-06-13T10:34:38.644Z,17.05
2018-06-13T10:35:38.666Z,17.08
2018-06-13T10:36:39.179Z,17.11
2018-06-13T10:37:38.653Z,17.11
2018-06-13T10:38:38.856Z,17.14
2018-06-13T10:39:38.718Z,17.11
2018-06-13T10:40:38.746Z,17.05
2018-06-13T10:41:38.661Z,16.99
2018-06-13T10:42:38.818Z,16.99
2018-06-13T10:43:38.661Z,17.05
2018-06-13T10:44:38.689Z,17.02
2018-06-13T10:45:38.887Z,17.07
2018-06-13T10:46:38.674Z,17.05
2018-06-13T10:47:38.662Z,17.07
2018-06-13T10:48:38.857Z,17.09
2018-06-13T10:49:38.811Z,17.05
2018-06-13T10:50:38.715Z,17.04
2018-06-13T10:51:38.764Z,17.08
2018-06-13T10:52:38.674Z,17.11
2018-06-13T10:53:38.967Z,17.11
2018-06-13T10:54:38.700Z,16.99
2018-06-13T10:55:39.002Z,16.97
2018-06-13T10:56:38.671Z,16.94
2018-06-13T10:57:38.750Z,16.95
2018-06-13T10:58:38.947Z,16.95
2018-06-13T10:59:38.664Z,16.98
2018-06-13T11:00:38.697Z,16.97
2018-06-13T11:01:38.695Z,16.94
2018-06-13T11:02:38.977Z,16.98
2018-06-13T11:03:38.702Z,17.05
2018-06-13T11:04:38.943Z,17.02
2018-06-13T11:05:38.754Z,17.07
2018-06-13T11:06:38.688Z,17.11
2018-06-13T11:07:38.726Z,17.16
2018-06-13T11:08:38.705Z,17.14
2018-06-13T11:09:38.822Z,17.19
2018-06-13T11:10:38.679Z,17.21
2018-06-13T11:11:38.780Z,17.26
2018-06-13T11:12:38.680Z,17.23
2018-06-13T11:13:39.404Z,17.26
2018-06-13T11:14:39.393Z,17.36
2018-06-13T11:15:39.490Z,17.43
2018-06-13T11:16:39.423Z,17.3
2018-06-13T11:17:39.419Z,17.26
2018-06-13T11:18:39.516Z,17.36
2018-06-13T11:19:39.735Z,17.4
2018-06-13T11:20:39.461Z,17.43
2018-06-13T11:21:39.436Z,17.46
2018-06-13T11:22:39.429Z,17.49
2018-06-13T11:23:39.411Z,17.46
2018-06-13T11:24:39.493Z,17.5
2018-06-13T11:25:39.451Z,17.47
2018-06-13T11:26:39.460Z,17.43
2018-06-13T11:27:39.758Z,17.42
2018-06-13T11:28:39.385Z,17.43
2018-06-13T11:29:39.464Z,17.46
2018-06-13T11:30:39.382Z,17.43
2018-06-13T11:31:39.610Z,17.49
2018-06-13T11:32:39.438Z,17.53
2018-06-13T11:33:39.481Z,17.56
2018-06-13T11:34:39.417Z,17.56
2018-06-13T11:35:39.405Z,17.61
2018-06-13T11:36:39.368Z,17.64
2018-06-13T11:37:39.401Z,17.57
2018-06-13T11:38:39.414Z,17.7
2018-06-13T11:39:39.367Z,17.76
2018-06-13T11:40:39.375Z,17.85
2018-06-13T11:41:39.409Z,17.87
2018-06-13T11:42:39.436Z,17.91
2018-06-13T11:43:39.457Z,17.98
2018-06-13T11:44:39.405Z,18.01
2018-06-13T11:45:39.391Z,18.08
2018-06-13T11:46:39.407Z,17.95
2018-06-13T11:47:39.408Z,17.87
2018-06-13T11:48:39.497Z,18.05
2018-06-13T11:49:39.400Z,18.11
2018-06-13T11:50:39.402Z,18.08
2018-06-13T11:51:39.598Z,18.15
2018-06-13T11:52:39.452Z,18.16
2018-06-13T11:53:39.671Z,18.22
2018-06-13T11:54:39.614Z,18.26
2018-06-13T11:55:39.593Z,18.25
2018-06-13T11:56:39.952Z,18.16
2018-06-13T11:57:39.449Z,18.19
2018-06-13T11:58:39.368Z,18.23
2018-06-13T11:59:39.908Z,18.26
2018-06-13T12:00:39.700Z,18.33
2018-06-13T12:01:39.574Z,18.12
2018-06-13T12:02:39.437Z,18.09
2018-06-13T12:03:39.466Z,18.13
2018-06-13T12:04:39.455Z,18.02
2018-06-13T12:05:39.459Z,17.82
2018-06-13T12:06:39.661Z,17.89
2018-06-13T12:07:39.474Z,17.81
2018-06-13T12:08:39.618Z,17.82
2018-06-13T12:09:39.423Z,17.85
2018-06-13T12:10:39.470Z,17.84
2018-06-13T12:11:39.893Z,17.77
2018-06-13T12:12:38.860Z,17.85
2018-06-13T12:13:38.730Z,17.78
2018-06-13T12:14:38.702Z,17.76
2018-06-13T12:15:38.746Z,17.7
2018-06-13T12:16:38.741Z,17.76
2018-06-13T12:17:38.735Z,17.78
2018-06-13T12:18:38.722Z,17.71
2018-06-13T12:19:38.731Z,17.78
2018-06-13T12:20:38.812Z,17.78
2018-06-13T12:21:38.753Z,17.82
2018-06-13T12:22:39.544Z,17.78
2018-06-13T12:23:38.770Z,17.78
2018-06-13T12:24:38.708Z,17.81
2018-06-13T12:25:38.714Z,17.81
2018-06-13T12:26:38.717Z,17.84
2018-06-13T12:27:38.748Z,17.81
2018-06-13T12:28:38.866Z,17.7
2018-06-13T12:29:38.730Z,17.73
2018-06-13T12:30:38.809Z,17.74
2018-06-13T12:31:38.742Z,17.74
2018-06-13T12:32:38.723Z,17.73
2018-06-13T12:33:38.805Z,17.84
2018-06-13T12:34:38.745Z,17.85
2018-06-13T12:35:39.701Z,17.82
2018-06-13T12:36:38.722Z,17.76
2018-06-13T12:37:38.729Z,17.87
2018-06-13T12:38:38.737Z,17.8
2018-06-13T12:39:38.728Z,17.76
2018-06-13T12:40:40.257Z,17.78
2018-06-13T12:41:38.712Z,17.71
2018-06-13T12:42:38.736Z,17.76
2018-06-13T12:43:38.723Z,17.76
2018-06-13T12:44:38.747Z,17.73
2018-06-13T12:45:38.745Z,17.77
2018-06-13T12:46:38.740Z,17.82
2018-06-13T12:47:38.708Z,17.85
2018-06-13T12:48:38.744Z,17.91
2018-06-13T12:49:38.780Z,18.04
2018-06-13T12:50:38.741Z,17.94
2018-06-13T12:51:38.750Z,17.81
2018-06-13T12:52:38.776Z,17.81
2018-06-13T12:53:38.709Z,17.88
2018-06-13T12:54:38.713Z,17.92
2018-06-13T12:55:38.765Z,17.97